createdAt,value
2023-01-22T00:03:46.529Z,2.09
2023-01-22T00:07:51.078Z,2.20
2023-01-22T00:11:53.453Z,2.03
2023-01-22T00:15:57.195Z,2.13
2023-01-22T00:19:59.206Z,2.18
2023-01-22T00:24:01.689Z,2.14
2023-01-22T00:28:03.748Z,2.18
2023-01-22T00:32:06.100Z,2.20
2023-01-22T00:36:09.679Z,2.17
2023-01-22T00:40:12.250Z,2.06
2023-01-22T00:44:14.120Z,1.87
2023-01-22T00:48:16.144Z,1.80
2023-01-22T00:52:18.162Z,1.55
2023-01-22T00:56:20.085Z,1.68
2023-01-22T01:00:22.650Z,2.13
2023-01-22T01:04:25.074Z,2.21
2023-01-22T01:08:28.287Z,2.14
2023-01-22T01:12:31.213Z,2.17
2023-01-22T01:16:33.390Z,2.08
2023-01-22T01:20:35.253Z,2.19
2023-01-22T01:24:37.246Z,2.23
2023-01-22T01:28:39.923Z,2.33
2023-01-22T01:32:41.899Z,2.58
2023-01-22T01:36:49.273Z,2.75
2023-01-22T01:40:51.815Z,2.93
2023-01-22T01:45:27.323Z,2.84
2023-01-22T01:49:35.386Z,2.95
2023-01-22T01:53:37.922Z,3.01
2023-01-22T01:57:41.954Z,2.98
2023-01-22T02:01:45.908Z,2.98
2023-01-22T02:05:47.845Z,2.92
2023-01-22T02:09:50.075Z,2.91
2023-01-22T02:14:03.088Z,2.86
2023-01-22T02:18:05.427Z,2.90
2023-01-22T02:22:15.511Z,2.91
2023-01-22T02:26:18.330Z,2.93
2023-01-22T02:30:21.360Z,2.97
2023-01-22T02:34:25.091Z,3.01
2023-01-22T02:38:28.903Z,3.16
2023-01-22T02:42:30.956Z,3.29
2023-01-22T02:46:33.489Z,3.35
2023-01-22T02:50:35.779Z,3.22
2023-01-22T02:54:39.071Z,3.24
2023-01-22T02:58:41.009Z,3.15
2023-01-22T03:02:42.964Z,3.14
2023-01-22T03:06:46.066Z,3.28
2023-01-22T03:10:52.969Z,3.34
2023-01-22T03:15:15.566Z,3.26
2023-01-22T03:19:36.716Z,3.27
2023-01-22T03:23:43.667Z,3.31
2023-01-22T03:28:05.050Z,3.32
2023-01-22T03:32:10.320Z,3.08
2023-01-22T03:36:14.421Z,2.67
2023-01-22T03:40:21.529Z,2.66
2023-01-22T03:44:23.514Z,2.76
2023-01-22T03:48:25.678Z,2.71
2023-01-22T03:52:27.703Z,2.64
2023-01-22T03:56:29.851Z,2.65
2023-01-22T04:00:36.668Z,2.60
2023-01-22T04:04:41.546Z,2.70
2023-01-22T04:08:45.031Z,2.70
2023-01-22T04:12:47.217Z,2.89
2023-01-22T04:16:52.211Z,3.06
2023-01-22T04:21:13.126Z,3.18
2023-01-22T04:25:19.246Z,3.08
2023-01-22T04:29:21.490Z,3.11
2023-01-22T04:33:24.021Z,3.12
2023-01-22T04:38:01.245Z,3.08
2023-01-22T04:42:03.322Z,3.16
2023-01-22T04:46:05.580Z,3.05
2023-01-22T04:50:13.314Z,3.11
2023-01-22T04:54:15.408Z,3.30
2023-01-22T04:58:17.395Z,3.33
2023-01-22T05:02:19.725Z,3.27
2023-01-22T05:06:22.134Z,3.29
2023-01-22T05:10:24.495Z,3.24
2023-01-22T05:14:26.621Z,3.07
2023-01-22T05:18:29.191Z,3.14
2023-01-22T05:22:31.144Z,3.05
2023-01-22T05:26:34.742Z,3.01
2023-01-22T05:30:48.025Z,3.09
2023-01-22T05:35:15.125Z,3.07
2023-01-22T05:39:21.365Z,3.00
2023-01-22T05:43:25.864Z,2.90
2023-01-22T05:47:34.061Z,2.96
2023-01-22T05:51:54.055Z,2.68
2023-01-22T05:55:59.757Z,2.69
2023-01-22T06:00:02.223Z,2.36
2023-01-22T06:04:05.525Z,2.17
2023-01-22T06:08:07.683Z,2.06
2023-01-22T06:12:21.100Z,1.96
2023-01-22T06:16:23.112Z,1.77
2023-01-22T06:20:28.042Z,1.67
2023-01-22T06:24:30.063Z,1.69
2023-01-22T06:28:33.536Z,1.66
2023-01-22T06:32:36.709Z,1.79
2023-01-22T06:36:41.431Z,1.76
2023-01-22T06:40:50.775Z,1.77
2023-01-22T06:44:52.968Z,1.73
2023-01-22T06:48:59.232Z,1.80
2023-01-22T06:53:01.632Z,1.97
2023-01-22T06:57:05.611Z,2.11
2023-01-22T07:01:11.352Z,2.13
2023-01-22T07:05:13.262Z,2.14
2023-01-22T07:09:15.168Z,2.19
2023-01-22T07:13:17.935Z,2.33
2023-01-22T07:17:19.885Z,2.44
2023-01-22T07:21:21.879Z,2.73
2023-01-22T07:25:23.887Z,3.00
2023-01-22T07:29:26.017Z,3.16
2023-01-22T07:33:28.091Z,3.33
2023-01-22T07:37:30.263Z,3.23
2023-01-22T07:41:32.871Z,3.43
2023-01-22T07:45:35.588Z,3.67
2023-01-22T07:49:37.502Z,3.81
2023-01-22T07:53:40.116Z,3.71
2023-01-22T07:57:42.132Z,3.84
2023-01-22T08:01:44.097Z,3.76
2023-01-22T08:05:46.041Z,3.72
2023-01-22T08:09:47.943Z,3.81
2023-01-22T08:13:50.077Z,3.96
2023-01-22T08:17:52.070Z,4.15
2023-01-22T08:21:54.150Z,4.30
2023-01-22T08:25:59.968Z,4.25
2023-01-22T08:30:04.372Z,4.33
2023-01-22T08:34:06.819Z,4.43
2023-01-22T08:38:09.088Z,4.34
2023-01-22T08:42:10.991Z,4.57
2023-01-22T08:46:13.103Z,4.46
2023-01-22T08:50:15.402Z,4.17
2023-01-22T08:54:18.007Z,4.39
2023-01-22T08:58:22.201Z,4.54
2023-01-22T09:02:24.281Z,4.40
2023-01-22T09:06:27.532Z,4.76
2023-01-22T09:10:29.914Z,5.02
2023-01-22T09:14:32.176Z,4.79
2023-01-22T09:18:34.487Z,4.81
2023-01-22T09:22:36.423Z,4.85
2023-01-22T09:26:38.287Z,4.53
2023-01-22T09:30:41.881Z,4.44
2023-01-22T09:34:44.090Z,4.51
2023-01-22T09:38:46.291Z,4.51
2023-01-22T09:42:49.265Z,4.49
2023-01-22T09:47:04.460Z,4.49
2023-01-22T09:51:06.610Z,4.57
2023-01-22T09:55:13.460Z,4.64
2023-01-22T09:59:17.436Z,4.69
2023-01-22T10:03:25.466Z,4.97
2023-01-22T10:07:47.867Z,5.24
2023-01-22T10:11:52.047Z,5.42
2023-01-22T10:15:55.359Z,5.70
2023-01-22T10:20:03.243Z,5.85
2023-01-22T10:24:05.504Z,6.15
2023-01-22T10:28:07.833Z,6.12
2023-01-22T10:32:18.942Z,6.18
2023-01-22T10:36:21.835Z,6.61
2023-01-22T10:40:30.987Z,6.89
2023-01-22T10:44:33.198Z,7.17
2023-01-22T10:48:35.336Z,7.23
2023-01-22T10:52:41.271Z,7.22
2023-01-22T10:56:43.676Z,6.77
2023-01-22T11:00:55.484Z,6.78
2023-01-22T11:05:06.708Z,6.86
2023-01-22T11:09:14.450Z,7.16
2023-01-22T11:13:17.018Z,7.18
2023-01-22T11:17:25.235Z,7.11
2023-01-22T11:21:33.994Z,7.44
2023-01-22T11:25:43.864Z,7.11
2023-01-22T11:30:01.018Z,7.42
2023-01-22T11:34:26.276Z,7.70
2023-01-22T11:38:47.675Z,7.75
2023-01-22T11:43:13.089Z,7.98
2023-01-22T11:47:21.394Z,7.83
2023-01-22T11:51:26.425Z,7.72
2023-01-22T11:55:31.402Z,7.50
2023-01-22T11:59:52.042Z,7.88
2023-01-22T12:03:53.962Z,7.91
2023-01-22T12:07:59.276Z,7.87
2023-01-22T12:12:22.437Z,7.64
2023-01-22T12:16:38.401Z,7.43
2023-01-22T12:20:40.377Z,7.12
2023-01-22T12:25:05.747Z,6.92
2023-01-22T12:29:08.156Z,6.70
2023-01-22T12:33:12.657Z,6.45
2023-01-22T12:37:16.364Z,6.08
2023-01-22T12:41:18.228Z,6.12
2023-01-22T12:45:20.358Z,5.97
2023-01-22T12:49:22.399Z,5.88
2023-01-22T12:53:28.750Z,5.63
2023-01-22T12:57:40.899Z,4.80
2023-01-22T13:01:43.622Z,4.28
2023-01-22T13:05:47.321Z,4.10
2023-01-22T13:10:00.362Z,4.23
2023-01-22T13:14:16.918Z,4.40
2023-01-22T13:18:21.053Z,4.62
2023-01-22T13:22:25.248Z,4.94
2023-01-22T13:26:28.553Z,5.27
2023-01-22T13:30:33.629Z,5.45
2023-01-22T13:34:35.767Z,5.47
2023-01-22T13:38:37.918Z,5.70
2023-01-22T13:42:43.163Z,5.72
2023-01-22T13:46:45.816Z,5.82
2023-01-22T13:50:52.111Z,6.09
2023-01-22T13:55:12.083Z,6.07
2023-01-22T13:59:14.079Z,6.20
2023-01-22T14:03:21.827Z,6.45
2023-01-22T14:07:34.658Z,6.38
2023-01-22T14:11:37.398Z,6.83
2023-01-22T14:15:40.559Z,6.38
2023-01-22T14:19:42.423Z,6.14
2023-01-22T14:23:44.341Z,5.87
2023-01-22T14:27:50.150Z,6.11
2023-01-22T14:31:52.157Z,5.96
2023-01-22T14:35:54.598Z,6.09
2023-01-22T14:39:56.491Z,6.16
2023-01-22T14:43:58.396Z,6.21
2023-01-22T14:48:01.099Z,5.84
2023-01-22T14:52:03.307Z,5.30
2023-01-22T14:56:05.469Z,5.27
2023-01-22T15:00:07.924Z,5.45
2023-01-22T15:04:09.786Z,5.42
2023-01-22T15:08:12.113Z,5.40
2023-01-22T15:12:14.057Z,5.14
2023-01-22T15:16:15.987Z,4.95
2023-01-22T15:20:18.796Z,4.95
2023-01-22T15:24:21.063Z,5.02
2023-01-22T15:28:23.012Z,4.92
2023-01-22T15:32:25.103Z,4.53
2023-01-22T15:36:27.104Z,4.32
2023-01-22T15:40:29.459Z,4.22
2023-01-22T15:44:31.448Z,4.14
2023-01-22T15:48:33.528Z,4.15
2023-01-22T15:52:35.453Z,4.08
2023-01-22T15:56:38.061Z,4.00
2023-01-22T16:00:40.048Z,3.98
2023-01-22T16:04:41.985Z,3.79
2023-01-22T16:08:44.797Z,3.68
2023-01-22T16:12:46.749Z,3.64
2023-01-22T16:16:48.900Z,3.53
2023-01-22T16:20:50.778Z,3.52
2023-01-22T16:24:56.135Z,3.48
2023-01-22T16:28:59.265Z,3.41
2023-01-22T16:33:01.823Z,3.39
2023-01-22T16:37:04.788Z,3.35
2023-01-22T16:41:06.620Z,3.31
2023-01-22T16:45:09.563Z,3.28
2023-01-22T16:49:19.362Z,3.31
2023-01-22T16:53:21.265Z,3.33
2023-01-22T16:57:23.233Z,3.23
2023-01-22T17:01:25.668Z,3.38
2023-01-22T17:05:27.592Z,3.44
2023-01-22T17:09:31.507Z,3.43
2023-01-22T17:13:33.456Z,3.57
2023-01-22T17:17:35.504Z,3.65
2023-01-22T17:21:37.395Z,3.73
2023-01-22T17:25:40.605Z,3.73
2023-01-22T17:29:42.518Z,3.74
2023-01-22T17:33:44.750Z,3.81
2023-01-22T17:37:47.872Z,3.84
2023-01-22T17:41:49.925Z,3.82
2023-01-22T17:45:54.156Z,3.87
2023-01-22T17:49:56.441Z,3.88
2023-01-22T17:53:59.402Z,3.98
2023-01-22T17:58:01.324Z,3.95
2023-01-22T18:02:03.638Z,4.02
2023-01-22T18:06:05.665Z,4.00
2023-01-22T18:10:07.964Z,4.05
2023-01-22T18:14:15.936Z,4.03
2023-01-22T18:18:18.318Z,4.03
2023-01-22T18:22:20.879Z,4.18
2023-01-22T18:26:23.832Z,4.27
2023-01-22T18:30:26.869Z,4.26
2023-01-22T18:34:28.821Z,4.24
2023-01-22T18:38:31.010Z,4.11
2023-01-22T18:42:32.886Z,4.06
2023-01-22T18:46:36.976Z,4.08
2023-01-22T18:50:39.791Z,4.07
2023-01-22T18:54:42.801Z,3.98
2023-01-22T18:58:46.228Z,3.98
2023-01-22T19:02:55.441Z,3.98
2023-01-22T19:06:57.842Z,3.99
2023-01-22T19:11:05.303Z,3.92
2023-01-22T19:15:07.681Z,3.94
2023-01-22T19:19:13.269Z,3.87
2023-01-22T19:23:15.250Z,3.89
2023-01-22T19:27:17.744Z,3.83
2023-01-22T19:31:21.539Z,3.74
2023-01-22T19:35:24.516Z,3.70
2023-01-22T19:39:26.633Z,3.65
2023-01-22T19:43:28.633Z,3.68
2023-01-22T19:47:30.577Z,3.60
2023-01-22T19:51:32.754Z,3.54
2023-01-22T19:55:38.561Z,3.51
2023-01-22T19:59:42.938Z,3.60
2023-01-22T20:03:45.399Z,3.53
2023-01-22T20:07:47.763Z,3.55
2023-01-22T20:11:53.987Z,3.55
2023-01-22T20:15:56.133Z,3.60
2023-01-22T20:19:59.051Z,3.61
2023-01-22T20:24:01.039Z,3.66
2023-01-22T20:28:03.226Z,3.69
2023-01-22T20:32:05.475Z,3.77
2023-01-22T20:36:10.812Z,4.00
2023-01-22T20:40:13.115Z,4.20
2023-01-22T20:44:15.247Z,4.34
2023-01-22T20:48:17.369Z,4.26
2023-01-22T20:52:20.183Z,4.11
2023-01-22T20:56:29.046Z,4.01
2023-01-22T21:00:32.040Z,3.91
2023-01-22T21:04:34.114Z,3.74
2023-01-22T21:08:37.467Z,3.57
2023-01-22T21:12:46.701Z,3.49
2023-01-22T21:16:50.119Z,3.47
2023-01-22T21:20:52.227Z,3.48
2023-01-22T21:24:56.496Z,3.45
2023-01-22T21:29:00.470Z,3.45
2023-01-22T21:33:02.514Z,3.46
2023-01-22T21:37:04.499Z,3.41
2023-01-22T21:41:08.028Z,3.40
2023-01-22T21:45:28.986Z,3.34
2023-01-22T21:49:31.506Z,3.30
2023-01-22T21:53:34.093Z,3.25
2023-01-22T21:57:36.163Z,3.41
2023-01-22T22:01:38.404Z,3.53
2023-01-22T22:05:40.420Z,3.62
2023-01-22T22:09:44.524Z,3.80
2023-01-22T22:13:46.701Z,3.90
2023-01-22T22:17:49.380Z,3.95
2023-01-22T22:21:51.841Z,3.89
2023-01-22T22:25:54.050Z,3.97
2023-01-22T22:29:56.210Z,3.93
2023-01-22T22:33:59.751Z,4.02
2023-01-22T22:38:01.810Z,4.11
2023-01-22T22:42:03.984Z,4.08
2023-01-22T22:46:07.482Z,4.03
2023-01-22T22:50:10.516Z,4.00
2023-01-22T22:54:15.587Z,4.10
2023-01-22T22:58:17.600Z,4.12
2023-01-22T23:02:19.688Z,4.09
2023-01-22T23:06:30.484Z,4.14
2023-01-22T23:10:44.569Z,4.24
2023-01-22T23:14:46.657Z,4.17
2023-01-22T23:18:50.090Z,4.17
2023-01-22T23:22:56.994Z,4.20
2023-01-22T23:26:59.146Z,4.25
2023-01-22T23:31:05.532Z,4.19
2023-01-22T23:35:07.661Z,4.18
2023-01-22T23:39:10.347Z,4.13
2023-01-22T23:43:12.367Z,4.14
2023-01-22T23:47:14.563Z,4.15
2023-01-22T23:51:17.267Z,4.10
2023-01-22T23:55:19.699Z,4.21
2023-01-22T23:59:24.013Z,4.17
